Time,TemperatureF,DewpointF,PressureIn,WindDirection,WindDirectionDegrees,WindSpeedMPH,WindSpeedGustMPH,Humidity,HourlyPrecipIn,Conditions,Clouds,dailyrainin,SoftwareType,DateUTC
2013-11-07 00:04:00,54.2,34.4,30.06,East,83,0.0,0.0,47,0.00,,,0.00,Wunderground v.1.15,2013-11-07 08:04:00,
2013-11-07 00:14:00,55.2,31.3,30.06,East,83,0.0,0.0,40,0.00,,,0.00,Wunderground v.1.15,2013-11-07 08:14:00,
2013-11-07 00:24:00,55.4,33.8,30.06,East,83,0.0,0.0,44,0.00,,,0.00,Wunderground v.1.15,2013-11-07 08:24:00,
2013-11-07 00:34:00,54.3,31.7,30.06,East,83,0.0,0.0,42,0.00,,,0.00,Wunderground v.1.15,2013-11-07 08:34:00,
2013-11-07 00:44:00,54.1,32.1,30.06,East,83,0.0,0.0,43,0.00,,,0.00,Wunderground v.1.15,2013-11-07 08:44:00,
2013-11-07 00:54:00,53.9,30.7,30.06,East,83,0.0,0.0,41,0.00,,,0.00,Wunderground v.1.15,2013-11-07 08:54:00,
2013-11-07 01:04:00,54.0,30.2,30.06,East,83,0.0,0.0,40,0.00,,,0.00,Wunderground v.1.15,2013-11-07 09:04:00,
2013-11-07 01:14:00,53.6,31.0,30.07,East,83,0.0,0.0,42,0.00,,,0.00,Wunderground v.1.15,2013-11-07 09:14:00,
2013-11-07 01:24:00,54.7,33.2,30.06,East,83,0.0,0.0,44,0.00,,,0.00,Wunderground v.1.15,2013-11-07 09:24:00,
2013-11-07 01:34:00,55.4,34.4,30.06,East,83,0.0,0.0,45,0.00,,,0.00,Wunderground v.1.15,2013-11-07 09:34:00,
2013-11-07 01:44:00,54.5,35.2,30.06,East,83,0.0,0.0,48,0.00,,,0.00,Wunderground v.1.15,2013-11-07 09:44:00,
2013-11-07 01:54:00,53.7,34.5,30.06,East,83,0.0,0.0,48,0.00,,,0.00,Wunderground v.1.15,2013-11-07 09:54:00,
2013-11-07 02:04:00,53.0,33.8,30.06,East,83,0.0,0.0,48,0.00,,,0.00,Wunderground v.1.15,2013-11-07 10:04:00,
2013-11-07 02:14:00,52.6,33.5,30.05,East,83,0.0,0.0,48,0.00,,,0.00,Wunderground v.1.15,2013-11-07 10:14:00,
2013-11-07 02:24:00,52.2,34.1,30.06,East,83,0.0,0.0,50,0.00,,,0.00,Wunderground v.1.15,2013-11-07 10:24:00,
2013-11-07 02:34:00,52.0,32.9,30.06,East,83,0.0,0.0,48,0.00,,,0.00,Wunderground v.1.15,2013-11-07 10:34:00,
2013-11-07 02:44:00,52.4,32.2,30.05,East,83,0.0,0.0,46,0.00,,,0.00,Wunderground v.1.15,2013-11-07 10:44:00,
2013-11-07 02:54:00,52.8,31.5,30.05,East,83,0.0,0.0,44,0.00,,,0.00,Wunderground v.1.15,2013-11-07 10:54:00,
2013-11-07 03:04:00,52.3,31.6,30.05,East,83,0.0,0.0,45,0.00,,,0.00,Wunderground v.1.15,2013-11-07 11:04:00,
2013-11-07 03:14:00,51.6,31.5,30.05,East,83,0.0,0.0,46,0.00,,,0.00,Wunderground v.1.15,2013-11-07 11:14:00,
2013-11-07 03:24:00,51.5,30.3,30.05,East,83,0.0,0.0,44,0.00,,,0.00,Wunderground v.1.15,2013-11-07 11:24:00,
2013-11-07 03:34:00,51.8,31.7,30.05,East,83,0.0,0.0,46,0.00,,,0.00,Wunderground v.1.15,2013-11-07 11:34:00,
2013-11-07 03:44:00,52.2,32.6,30.05,East,83,0.0,0.0,47,0.00,,,0.00,Wunderground v.1.15,2013-11-07 11:44:00,
2013-11-07 03:54:00,51.9,28.9,30.05,East,83,0.0,0.0,41,0.00,,,0.00,Wunderground v.1.15,2013-11-07 11:54:00,
2013-11-07 04:04:00,52.0,30.7,30.05,East,83,0.0,0.0,44,0.00,,,0.00,Wunderground v.1.15,2013-11-07 12:04:00,
2013-11-07 04:14:00,51.8,28.2,30.05,East,83,0.0,0.0,40,0.00,,,0.00,Wunderground v.1.15,2013-11-07 12:14:00,
2013-11-07 04:24:00,51.5,29.7,30.05,East,83,0.0,0.0,43,0.00,,,0.00,Wunderground v.1.15,2013-11-07 12:24:00,
2013-11-07 04:34:00,51.1,29.9,30.05,East,83,0.0,0.0,44,0.00,,,0.00,Wunderground v.1.15,2013-11-07 12:34:00,
2013-11-07 04:44:00,51.1,31.0,30.06,East,83,0.0,0.0,46,0.00,,,0.00,Wunderground v.1.15,2013-11-07 12:44:00,
2013-11-07 04:54:00,50.4,31.9,30.06,East,83,0.0,0.0,49,0.00,,,0.00,Wunderground v.1.15,2013-11-07 12:54:00,
2013-11-07 05:04:00,49.9,31.0,30.06,East,83,0.0,0.0,48,0.00,,,0.00,Wunderground v.1.15,2013-11-07 13:04:00,
2013-11-07 05:14:00,50.1,29.6,30.06,East,83,0.0,0.0,45,0.00,,,0.00,Wunderground v.1.15,2013-11-07 13:14:00,
2013-11-07 05:24:00,51.2,30.0,30.06,East,83,0.0,0.0,44,0.00,,,0.00,Wunderground v.1.15,2013-11-07 13:24:00,
2013-11-07 05:34:00,51.1,30.5,30.06,East,83,0.0,0.0,45,0.00,,,0.00,Wunderground v.1.15,2013-11-07 13:34:00,
2013-11-07 05:44:00,50.6,31.1,30.06,East,83,0.0,0.0,47,0.00,,,0.00,Wunderground v.1.15,2013-11-07 13:44:00,
2013-11-07 05:54:00,49.9,31.0,30.06,East,83,0.0,0.0,48,0.00,,,0.00,Wunderground v.1.15,2013-11-07 13:54:00,
2013-11-07 06:04:00,49.4,31.5,30.06,East,83,0.0,0.0,50,0.00,,,0.00,Wunderground v.1.15,2013-11-07 14:04:00,
2013-11-07 06:14:00,49.1,31.7,30.06,East,83,0.0,0.0,51,0.00,,,0.00,Wunderground v.1.15,2013-11-07 14:14:00,
2013-11-07 06:24:00,49.2,31.8,30.07,East,83,0.0,0.0,51,0.00,,,0.00,Wunderground v.1.15,2013-11-07 14:24:00,
2013-11-07 06:34:00,51.2,31.1,30.07,East,83,0.0,0.0,46,0.00,,,0.00,Wunderground v.1.15,2013-11-07 14:34:00,
2013-11-07 06:44:00,52.3,32.6,30.07,East,83,0.0,0.0,47,0.00,,,0.00,Wunderground v.1.15,2013-11-07 14:44:00,
2013-11-07 06:54:00,53.1,33.4,30.08,East,83,0.0,0.0,47,0.00,,,0.00,Wunderground v.1.15,2013-11-07 14:54:00,
2013-11-07 07:04:00,54.6,34.8,30.07,East,83,0.0,0.0,47,0.00,,,0.00,Wunderground v.1.15,2013-11-07 15:04:00,
2013-11-07 07:14:00,54.8,34.4,30.08,East,83,0.0,0.0,46,0.00,,,0.00,Wunderground v.1.15,2013-11-07 15:14:00,
2013-11-07 07:24:00,55.1,34.7,30.08,East,83,0.0,0.0,46,0.00,,,0.00,Wunderground v.1.15,2013-11-07 15:24:00,
2013-11-07 07:34:00,56.2,34.6,30.08,East,83,0.0,0.0,44,0.00,,,0.00,Wunderground v.1.15,2013-11-07 15:34:00,
2013-11-07 07:44:00,58.0,35.6,30.08,East,83,0.0,0.0,43,0.00,,,0.00,Wunderground v.1.15,2013-11-07 15:44:00,
2013-11-07 07:54:00,58.5,37.2,30.08,East,83,0.0,0.0,45,0.00,,,0.00,Wunderground v.1.15,2013-11-07 15:54:00,
2013-11-07 08:04:00,59.4,38.0,30.08,East,83,0.0,0.0,45,0.00,,,0.00,Wunderground v.1.15,2013-11-07 16:04:00,
2013-11-07 08:14:00,61.2,36.0,30.08,East,83,0.0,0.0,39,0.00,,,0.00,Wunderground v.1.15,2013-11-07 16:14:00,
2013-11-07 08:24:00,62.9,36.9,30.08,East,83,0.0,0.0,38,0.00,,,0.00,Wunderground v.1.15,2013-11-07 16:24:00,
2013-11-07 08:34:00,65.3,38.3,30.08,East,83,0.0,0.0,37,0.00,,,0.00,Wunderground v.1.15,2013-11-07 16:34:00,
2013-11-07 08:44:00,68.2,39.5,30.08,East,83,0.0,0.0,35,0.00,,,0.00,Wunderground v.1.15,2013-11-07 16:44:00,
2013-11-07 08:54:00,70.8,35.1,30.08,East,83,0.0,0.0,27,0.00,,,0.00,Wunderground v.1.15,2013-11-07 16:54:00,
2013-11-07 09:04:00,73.0,31.9,30.08,East,83,0.0,0.0,22,0.00,,,0.00,Wunderground v.1.15,2013-11-07 17:04:00,
2013-11-07 09:14:00,73.3,29.8,30.08,West,280,0.0,0.0,20,0.00,,,0.00,Wunderground v.1.15,2013-11-07 17:14:00,
2013-11-07 09:24:00,73.5,29.9,30.08,West,269,0.0,0.0,20,0.00,,,0.00,Wunderground v.1.15,2013-11-07 17:24:00,
2013-11-07 09:34:00,73.9,27.7,30.08,West,277,0.0,0.0,18,0.00,,,0.00,Wunderground v.1.15,2013-11-07 17:34:00,
2013-11-07 09:44:00,73.7,31.3,30.08,WNW,283,0.0,0.0,21,0.00,,,0.00,Wunderground v.1.15,2013-11-07 17:44:00,
2013-11-07 09:54:00,72.7,30.5,30.08,West,273,0.0,0.0,21,0.00,,,0.00,Wunderground v.1.15,2013-11-07 17:54:00,
2013-11-07 10:04:00,72.9,29.4,30.08,West,265,0.0,0.0,20,0.00,,,0.00,Wunderground v.1.15,2013-11-07 18:04:00,
2013-11-07 10:14:00,74.0,29.1,30.08,West,279,1.0,1.0,19,0.00,,,0.00,Wunderground v.1.15,2013-11-07 18:14:00,
2013-11-07 10:24:00,73.3,33.2,30.07,WNW,283,2.0,2.0,23,0.00,,,0.00,Wunderground v.1.15,2013-11-07 18:24:00,
2013-11-07 10:34:00,72.0,40.5,30.07,West,266,1.0,1.0,32,0.00,,,0.00,Wunderground v.1.15,2013-11-07 18:34:00,
2013-11-07 10:44:00,72.7,37.7,30.07,West,271,0.0,0.0,28,0.00,,,0.00,Wunderground v.1.15,2013-11-07 18:44:00,
2013-11-07 10:54:00,74.1,41.5,30.07,West,264,0.0,0.0,31,0.00,,,0.00,Wunderground v.1.15,2013-11-07 18:54:00,
2013-11-07 11:04:00,73.9,46.7,30.06,West,261,0.0,0.0,38,0.00,,,0.00,Wunderground v.1.15,2013-11-07 19:04:00,
2013-11-07 11:14:00,74.2,45.5,30.05,West,262,0.0,1.0,36,0.00,,,0.00,Wunderground v.1.15,2013-11-07 19:14:00,
2013-11-07 11:24:00,75.1,43.2,30.05,West,280,0.0,0.0,32,0.00,,,0.00,Wunderground v.1.15,2013-11-07 19:24:00,
2013-11-07 11:34:00,76.0,44.0,30.04,WNW,295,1.0,1.0,32,0.00,,,0.00,Wunderground v.1.15,2013-11-07 19:34:00,
2013-11-07 11:44:00,76.2,39.8,30.03,WNW,291,2.0,2.0,27,0.00,,,0.00,Wunderground v.1.15,2013-11-07 19:44:00,
2013-11-07 11:54:00,76.1,42.4,30.03,WNW,293,2.0,2.0,30,0.00,,,0.00,Wunderground v.1.15,2013-11-07 19:54:00,
2013-11-07 12:04:00,76.6,38.1,30.02,West,280,1.0,1.0,25,0.00,,,0.00,Wunderground v.1.15,2013-11-07 20:04:00,
2013-11-07 12:14:00,77.4,33.2,30.01,West,274,0.0,0.0,20,0.00,,,0.00,Wunderground v.1.15,2013-11-07 20:14:00,
2013-11-07 12:24:00,77.9,33.6,30.01,WSW,256,0.0,0.0,20,0.00,,,0.00,Wunderground v.1.15,2013-11-07 20:24:00,
2013-11-07 12:34:00,78.0,32.4,30.01,West,261,1.0,1.0,19,0.00,,,0.00,Wunderground v.1.15,2013-11-07 20:34:00,
2013-11-07 12:44:00,78.1,33.7,30.00,WNW,283,3.0,3.0,20,0.00,,,0.00,Wunderground v.1.15,2013-11-07 20:44:00,
2013-11-07 12:54:00,78.5,32.8,30.00,WNW,282,3.0,3.0,19,0.00,,,0.00,Wunderground v.1.15,2013-11-07 20:54:00,
2013-11-07 13:04:00,78.6,36.6,30.00,NW,304,1.0,6.0,22,0.00,,,0.00,Wunderground v.1.15,2013-11-07 21:04:00,
2013-11-07 13:14:00,78.8,31.7,29.99,WNW,286,2.0,2.0,18,0.00,,,0.00,Wunderground v.1.15,2013-11-07 21:14:00,
2013-11-07 13:24:00,79.2,24.1,29.99,WNW,284,1.0,1.0,13,0.00,,,0.00,Wunderground v.1.15,2013-11-07 21:24:00,
2013-11-07 13:34:00,78.9,21.9,29.98,WNW,286,3.0,3.0,12,0.00,,,0.00,Wunderground v.1.15,2013-11-07 21:34:00,
2013-11-07 13:44:00,78.5,25.3,29.98,West,264,1.0,1.0,14,0.00,,,0.00,Wunderground v.1.15,2013-11-07 21:44:00,
2013-11-07 13:54:00,78.3,29.9,29.98,SW,224,2.0,2.0,17,0.00,,,0.00,Wunderground v.1.15,2013-11-07 21:54:00,
2013-11-07 14:04:00,79.2,20.1,29.98,WNW,291,1.0,5.0,11,0.00,,,0.00,Wunderground v.1.15,2013-11-07 22:04:00,
2013-11-07 14:14:00,79.5,22.4,29.98,WNW,290,3.0,3.0,12,0.00,,,0.00,Wunderground v.1.15,2013-11-07 22:14:00,
2013-11-07 14:24:00,79.8,20.6,29.98,WNW,294,2.0,2.0,11,0.00,,,0.00,Wunderground v.1.15,2013-11-07 22:24:00,
2013-11-07 14:34:00,79.5,18.1,29.97,NNW,343,1.0,1.0,10,0.00,,,0.00,Wunderground v.1.15,2013-11-07 22:34:00,
2013-11-07 14:44:00,79.2,15.5,29.97,WNW,282,0.0,0.0,9,0.00,,,0.00,Wunderground v.1.15,2013-11-07 22:44:00,
2013-11-07 14:54:00,78.9,12.5,29.97,NNW,332,0.0,0.0,8,0.00,,,0.00,Wunderground v.1.15,2013-11-07 22:54:00,
2013-11-07 15:04:00,79.5,15.7,29.97,WNW,303,0.0,0.0,9,0.00,,,0.00,Wunderground v.1.15,2013-11-07 23:04:00,
2013-11-07 15:14:00,80.8,16.7,29.97,NW,309,0.0,7.0,9,0.00,,,0.00,Wunderground v.1.15,2013-11-07 23:14:00,
2013-11-07 15:24:00,80.6,13.8,29.97,West,277,1.0,1.0,8,0.00,,,0.00,Wunderground v.1.15,2013-11-07 23:24:00,
2013-11-07 15:34:00,80.0,16.1,29.97,West,275,0.0,0.0,9,0.00,,,0.00,Wunderground v.1.15,2013-11-07 23:34:00,
2013-11-07 15:44:00,79.8,13.2,29.97,NNW,328,0.0,0.0,8,0.00,,,0.00,Wunderground v.1.15,2013-11-07 23:44:00,
2013-11-07 15:54:00,79.4,12.9,29.97,WNW,284,0.0,0.0,8,0.00,,,0.00,Wunderground v.1.15,2013-11-07 23:54:00,
2013-11-07 16:04:00,79.4,12.9,29.96,NW,309,0.0,0.0,8,0.00,,,0.00,Wunderground v.1.15,2013-11-08 00:04:00,
2013-11-07 16:14:00,79.1,20.0,29.96,WNW,292,0.0,0.0,11,0.00,,,0.00,Wunderground v.1.15,2013-11-08 00:14:00,
2013-11-07 16:24:00,78.8,27.2,29.96,WNW,292,0.0,0.0,15,0.00,,,0.00,Wunderground v.1.15,2013-11-08 00:24:00,
2013-11-07 16:34:00,76.7,30.0,29.96,WNW,292,0.0,0.0,18,0.00,,,0.00,Wunderground v.1.15,2013-11-08 00:34:00,
2013-11-07 16:44:00,74.2,37.1,29.96,WSW,255,0.0,2.0,26,0.00,,,0.00,Wunderground v.1.15,2013-11-08 00:44:00,
2013-11-07 16:54:00,71.0,41.2,29.96,WNW,300,0.0,0.0,34,0.00,,,0.00,Wunderground v.1.15,2013-11-08 00:54:00,
2013-11-07 17:04:00,70.6,35.0,29.96,WNW,296,0.0,0.0,27,0.00,,,0.00,Wunderground v.1.15,2013-11-08 01:04:00,
2013-11-07 17:14:00,70.7,30.0,29.97,WSW,252,0.0,0.0,22,0.00,,,0.00,Wunderground v.1.15,2013-11-08 01:14:00,
2013-11-07 17:24:00,71.1,25.4,29.97,WNW,285,0.0,0.0,18,0.00,,,0.00,Wunderground v.1.15,2013-11-08 01:24:00,
2013-11-07 17:34:00,70.8,23.8,29.97,WNW,290,0.0,0.0,17,0.00,,,0.00,Wunderground v.1.15,2013-11-08 01:34:00,
2013-11-07 17:44:00,71.3,21.2,29.97,WNW,286,0.0,0.0,15,0.00,,,0.00,Wunderground v.1.15,2013-11-08 01:44:00,
2013-11-07 17:54:00,70.7,28.8,29.97,WNW,286,0.0,0.0,21,0.00,,,0.00,Wunderground v.1.15,2013-11-08 01:54:00,
2013-11-07 18:04:00,69.4,27.7,29.97,WNW,286,0.0,0.0,21,0.00,,,0.00,Wunderground v.1.15,2013-11-08 02:04:00,
2013-11-07 18:14:00,68.2,26.7,29.97,WNW,286,0.0,0.0,21,0.00,,,0.00,Wunderground v.1.15,2013-11-08 02:14:00,
2013-11-07 18:24:00,67.2,28.1,29.97,WNW,286,0.0,0.0,23,0.00,,,0.00,Wunderground v.1.15,2013-11-08 02:24:00,
2013-11-07 18:34:00,66.2,30.3,29.97,WNW,286,0.0,0.0,26,0.00,,,0.00,Wunderground v.1.15,2013-11-08 02:34:00,
2013-11-07 18:44:00,65.3,31.3,29.97,WNW,286,0.0,0.0,28,0.00,,,0.00,Wunderground v.1.15,2013-11-08 02:44:00,
2013-11-07 18:54:00,64.3,31.3,29.97,WNW,286,0.0,0.0,29,0.00,,,0.00,Wunderground v.1.15,2013-11-08 02:54:00,
2013-11-07 19:04:00,64.0,31.1,29.97,WNW,286,0.0,0.0,29,0.00,,,0.00,Wunderground v.1.15,2013-11-08 03:04:00,
2013-11-07 19:14:00,65.3,31.3,29.97,North,9,0.0,0.0,28,0.00,,,0.00,Wunderground v.1.15,2013-11-08 03:14:00,
2013-11-07 19:24:00,66.5,32.4,29.97,NNE,21,0.0,0.0,28,0.00,,,0.00,Wunderground v.1.15,2013-11-08 03:24:00,
2013-11-07 19:34:00,67.2,33.0,29.98,NNE,21,0.0,0.0,28,0.00,,,0.00,Wunderground v.1.15,2013-11-08 03:34:00,
2013-11-07 19:44:00,66.4,34.0,29.98,NNE,21,0.0,0.0,30,0.00,,,0.00,Wunderground v.1.15,2013-11-08 03:44:00,
2013-11-07 19:54:00,65.2,33.8,29.97,NNE,21,0.0,0.0,31,0.00,,,0.00,Wunderground v.1.15,2013-11-08 03:54:00,
2013-11-07 20:04:00,64.5,34.0,29.97,NNE,21,0.0,0.0,32,0.00,,,0.00,Wunderground v.1.15,2013-11-08 04:04:00,
2013-11-07 20:14:00,64.2,34.5,29.97,NNE,27,0.0,0.0,33,0.00,,,0.00,Wunderground v.1.15,2013-11-08 04:14:00,
2013-11-07 20:24:00,65.6,34.9,29.97,NNE,28,0.0,0.0,32,0.00,,,0.00,Wunderground v.1.15,2013-11-08 04:24:00,
2013-11-07 20:34:00,66.1,36.1,29.98,NNE,30,0.0,0.0,33,0.00,,,0.00,Wunderground v.1.15,2013-11-08 04:34:00,
2013-11-07 20:44:00,66.2,36.2,29.98,ENE,69,0.0,0.0,33,0.00,,,0.00,Wunderground v.1.15,2013-11-08 04:44:00,
2013-11-07 20:54:00,64.4,38.2,29.98,ENE,69,0.0,0.0,38,0.00,,,0.00,Wunderground v.1.15,2013-11-08 04:54:00,
2013-11-07 21:04:00,62.9,37.5,29.98,ENE,69,0.0,0.0,39,0.00,,,0.00,Wunderground v.1.15,2013-11-08 05:04:00,
2013-11-07 21:14:00,62.5,37.2,29.98,ENE,69,0.0,0.0,39,0.00,,,0.00,Wunderground v.1.15,2013-11-08 05:14:00,
2013-11-07 21:24:00,61.7,38.4,29.98,ENE,69,0.0,0.0,42,0.00,,,0.00,Wunderground v.1.15,2013-11-08 05:24:00,
2013-11-07 21:34:00,60.6,36.8,29.99,East,92,0.0,0.0,41,0.00,,,0.00,Wunderground v.1.15,2013-11-08 05:34:00,
2013-11-07 21:44:00,59.6,33.9,29.99,SSE,154,0.0,0.0,38,0.00,,,0.00,Wunderground v.1.15,2013-11-08 05:44:00,
2013-11-07 21:54:00,58.9,33.3,29.99,SSE,153,0.0,0.0,38,0.00,,,0.00,Wunderground v.1.15,2013-11-08 05:54:00,
2013-11-07 22:04:00,58.3,32.8,29.98,SSE,153,0.0,0.0,38,0.00,,,0.00,Wunderground v.1.15,2013-11-08 06:04:00,
2013-11-07 22:14:00,58.4,31.5,29.99,SSE,153,0.0,0.0,36,0.00,,,0.00,Wunderground v.1.15,2013-11-08 06:14:00,
2013-11-07 22:24:00,58.2,32.7,29.98,SSE,153,0.0,0.0,38,0.00,,,0.00,Wunderground v.1.15,2013-11-08 06:24:00,
2013-11-07 22:34:00,57.7,32.2,29.99,SSE,153,0.0,0.0,38,0.00,,,0.00,Wunderground v.1.15,2013-11-08 06:34:00,
2013-11-07 22:44:00,57.3,33.2,29.99,SSE,153,0.0,0.0,40,0.00,,,0.00,Wunderground v.1.15,2013-11-08 06:44:00,
2013-11-07 22:54:00,57.0,32.9,29.99,SSE,153,0.0,0.0,40,0.00,,,0.00,Wunderground v.1.15,2013-11-08 06:54:00,
2013-11-07 23:04:00,56.8,33.3,29.99,SSE,153,0.0,0.0,41,0.00,,,0.00,Wunderground v.1.15,2013-11-08 07:04:00,
2013-11-07 23:14:00,56.6,33.8,29.99,SSE,153,0.0,0.0,42,0.00,,,0.00,Wunderground v.1.15,2013-11-08 07:14:00,
2013-11-07 23:24:00,56.6,34.3,29.99,SSE,153,0.0,0.0,43,0.00,,,0.00,Wunderground v.1.15,2013-11-08 07:24:00,
2013-11-07 23:34:00,56.3,34.6,29.99,SSE,153,0.0,0.0,44,0.00,,,0.00,Wunderground v.1.15,2013-11-08 07:34:00,
2013-11-07 23:44:00,55.7,34.7,29.99,SSE,153,0.0,0.0,45,0.00,,,0.00,Wunderground v.1.15,2013-11-08 07:44:00,
2013-11-07 23:54:00,55.5,35.6,29.99,SSE,153,0.0,0.0,47,0.00,,,0.00,Wunderground v.1.15,2013-11-08 07:54:00,